Time;durP1;ratioP1;P1;durP2;ratioP2;P2;SDS_P1;SDS_P2;PMS_P1;PMS_P2;Temp;Humidity;BMP_temperature;BMP_pressure;BME280_temperature;BME280_humidity;BME280_pressure;Samples;Min_cycle;Max_cycle;Signal;HPM_P1;HPM_P2
2022/09/23 00:01:00;;;;;;;22.35;21.15;;;8.90;88.50;;;;;;5027218;28;20671;-72
2022/09/23 00:03:29;;;;;;;23.63;22.05;;;8.90;88.50;;;;;;5020812;28;20218;-72
2022/09/23 00:06:00;;;;;;;21.42;20.33;;;8.90;88.70;;;;;;5030561;28;20202;-72
2022/09/23 00:08:27;;;;;;;22.48;21.17;;;8.90;88.80;;;;;;5025486;28;20195;-72
2022/09/23 00:10:54;;;;;;;21.45;20.15;;;8.90;88.70;;;;;;5023141;28;20244;-73
2022/09/23 00:13:23;;;;;;;22.38;21.17;;;8.90;88.70;;;;;;5028135;28;20313;-72
2022/09/23 00:15:50;;;;;;;20.95;19.75;;;8.80;89.00;;;;;;5021511;28;20198;-73
2022/09/23 00:18:19;;;;;;;22.92;21.52;;;8.80;89.10;;;;;;5020545;28;20193;-72
2022/09/23 00:20:46;;;;;;;21.23;19.90;;;8.80;89.10;;;;;;5019699;28;20284;-72
2022/09/23 00:23:13;;;;;;;21.77;20.58;;;8.80;88.90;;;;;;5027786;28;20221;-73
2022/09/23 00:25:40;;;;;;;22.48;21.17;;;8.70;89.00;;;;;;5024946;28;20201;-72
2022/09/23 00:28:07;;;;;;;21.35;20.15;;;8.70;89.10;;;;;;5029265;28;20284;-72
2022/09/23 00:30:35;;;;;;;22.92;21.63;;;8.70;89.20;;;;;;5019973;28;20228;-72
2022/09/23 00:33:02;;;;;;;22.80;21.33;;;8.60;89.30;;;;;;5020799;28;20209;-72
2022/09/23 00:35:29;;;;;;;22.20;20.98;;;8.60;89.50;;;;;;5019534;28;20205;-72
2022/09/23 00:37:56;;;;;;;23.70;22.05;;;8.60;89.60;;;;;;5019939;28;20199;-71
2022/09/23 00:40:23;;;;;;;22.95;21.65;;;8.60;89.60;;;;;;5024788;28;20198;-72
2022/09/23 00:42:51;;;;;;;22.98;21.58;;;8.60;89.70;;;;;;5020830;28;20315;-72
2022/09/23 00:45:18;;;;;;;22.98;21.40;;;8.50;89.60;;;;;;5021061;28;20193;-73
2022/09/23 00:47:51;;;;;;;22.17;20.88;;;8.50;89.80;;;;;;5026186;28;20196;-73
2022/09/23 00:50:24;;;;;;;21.90;20.40;;;8.50;89.90;;;;;;5019837;28;20226;-73
2022/09/23 00:52:52;;;;;;;21.70;20.40;;;8.50;89.90;;;;;;5020882;28;20217;-73
2022/09/23 00:55:24;;;;;;;22.15;20.95;;;8.50;89.90;;;;;;5023213;28;20340;-73
2022/09/23 00:57:54;;;;;;;21.95;20.73;;;8.50;89.90;;;;;;5029445;28;20204;-73
2022/09/23 01:00:22;;;;;;;21.75;20.45;;;8.50;90.00;;;;;;5020969;28;20200;-73
2022/09/23 01:02:51;;;;;;;20.13;19.10;;;8.50;89.90;;;;;;5019641;28;20236;-73
2022/09/23 01:05:18;;;;;;;22.98;21.05;;;8.50;90.00;;;;;;5020802;28;20197;-74
2022/09/23 01:07:46;;;;;;;22.65;20.90;;;8.50;90.00;;;;;;5020386;28;20232;-73
2022/09/23 01:10:16;;;;;;;22.35;21.15;;;8.50;90.00;;;;;;5020331;28;20217;-73
2022/09/23 01:13:01;;;;;;;22.45;21.05;;;8.50;89.70;;;;;;5026476;28;20249;-73
2022/09/23 01:15:37;;;;;;;21.85;20.55;;;8.50;89.70;;;;;;5024155;28;20196;-72
2022/09/23 01:18:13;;;;;;;21.35;20.15;;;8.50;89.80;;;;;;5031229;28;20197;-72
2022/09/23 01:20:54;;;;;;;21.73;20.42;;;8.60;89.60;;;;;;5032470;28;20200;-72
2022/09/23 01:23:48;;;;;;;20.98;19.67;;;8.60;89.20;;;;;;5025027;28;20264;-72
2022/09/23 01:26:51;;;;;;;20.92;19.60;;;8.60;89.30;;;;;;5018970;28;20657;-72
2022/09/23 01:29:45;;;;;;;20.83;19.73;;;8.50;89.50;;;;;;5023642;28;20216;-72
2022/09/23 01:32:24;;;;;;;19.80;18.70;;;8.40;89.80;;;;;;5023649;28;20198;-72
2022/09/23 01:34:59;;;;;;;21.23;19.95;;;8.40;89.90;;;;;;5033486;28;20752;-72
2022/09/23 01:37:32;;;;;;;20.13;19.02;;;8.30;89.90;;;;;;5019297;28;20194;-72
2022/09/23 01:40:06;;;;;;;22.15;20.83;;;8.30;90.00;;;;;;5018884;28;20615;-72
2022/09/23 01:42:39;;;;;;;20.83;19.73;;;8.30;90.00;;;;;;5015700;28;20206;-72
2022/09/23 01:45:12;;;;;;;21.15;19.95;;;8.20;90.20;;;;;;5020610;28;20678;-73
2022/09/23 01:47:48;;;;;;;20.33;19.17;;;8.30;90.20;;;;;;5020675;28;20206;-73
2022/09/23 01:53:10;;;;;;;21.08;19.88;;;8.20;90.20;;;;;;5022878;28;20219;-71
2022/09/23 01:55:41;;;;;;;20.42;19.30;;;8.20;90.20;;;;;;5023434;28;20197;-72
2022/09/23 01:58:12;;;;;;;20.63;19.42;;;8.20;90.20;;;;;;5024734;28;20260;-71
2022/09/23 02:00:46;;;;;;;21.60;20.40;;;8.20;90.20;;;;;;5027375;28;20194;-72
2022/09/23 02:03:17;;;;;;;21.75;20.55;;;8.20;90.20;;;;;;5023114;28;20762;-71
2022/09/23 02:05:48;;;;;;;21.23;19.92;;;8.10;90.00;;;;;;5023509;28;20547;-72
2022/09/23 02:08:20;;;;;;;22.20;21.00;;;8.10;90.00;;;;;;5023134;28;20233;-72
2022/09/23 02:10:52;;;;;;;21.65;20.50;;;8.10;89.90;;;;;;5022069;28;20218;-72
2022/09/23 02:13:23;;;;;;;22.90;21.45;;;8.00;90.30;;;;;;5025115;28;20218;-72
2022/09/23 02:15:55;;;;;;;21.65;20.50;;;8.00;90.40;;;;;;5023167;28;20205;-72
2022/09/23 02:18:28;;;;;;;22.27;21.02;;;8.00;90.50;;;;;;5033015;28;20212;-73
2022/09/23 02:20:59;;;;;;;24.33;23.00;;;8.00;90.50;;;;;;5024544;28;20198;-73
2022/09/23 02:23:31;;;;;;;24.95;23.65;;;8.00;90.30;;;;;;5021655;28;20393;-73
2022/09/23 02:26:07;;;;;;;23.67;22.38;;;8.00;90.00;;;;;;5022967;28;20288;-73
2022/09/23 02:28:46;;;;;;;23.98;22.65;;;8.00;90.30;;;;;;5024003;28;20215;-73
2022/09/23 02:31:21;;;;;;;21.95;20.85;;;7.90;90.50;;;;;;5027085;28;20713;-73
2022/09/23 02:33:57;;;;;;;20.75;19.73;;;7.90;90.60;;;;;;5026877;28;20697;-73
2022/09/23 02:36:30;;;;;;;29.33;27.63;;;7.80;90.60;;;;;;5026569;28;20209;-73
2022/09/23 02:39:01;;;;;;;21.55;20.35;;;7.80;90.60;;;;;;5027630;28;20212;-73
2022/09/23 02:41:32;;;;;;;19.92;18.83;;;7.80;90.50;;;;;;5020677;28;20285;-73
2022/09/23 02:44:04;;;;;;;20.10;18.88;;;7.80;90.40;;;;;;5026795;28;20225;-72
2022/09/23 02:46:32;;;;;;;28.05;26.48;;;7.80;90.40;;;;;;5026681;28;20929;-72
2022/09/23 02:49:05;;;;;;;24.50;23.27;;;7.80;90.40;;;;;;5024431;28;20194;-72
2022/09/23 02:51:36;;;;;;;20.90;19.90;;;7.80;90.40;;;;;;5023655;28;20244;-71
2022/09/23 02:54:06;;;;;;;26.95;25.63;;;7.80;90.50;;;;;;5028659;28;20282;-71
2022/09/23 02:56:33;;;;;;;20.38;19.17;;;7.80;90.70;;;;;;5022209;28;20204;-71
2022/09/23 02:59:01;;;;;;;36.88;35.08;;;7.80;90.50;;;;;;5029054;28;20407;-71
2022/09/23 03:01:40;;;;;;;23.08;21.73;;;7.80;90.40;;;;;;5019839;28;20619;-71
2022/09/23 03:04:17;;;;;;;36.83;35.03;;;7.70;90.60;;;;;;5016768;28;20220;-71
2022/09/23 03:06:56;;;;;;;26.85;25.35;;;7.70;90.70;;;;;;5025650;28;20208;-71
2022/09/23 03:09:29;;;;;;;22.90;21.70;;;7.70;90.70;;;;;;5023346;28;20296;-72
2022/09/23 03:12:05;;;;;;;40.03;38.15;;;7.70;90.60;;;;;;5019087;28;20198;-71
2022/09/23 03:14:41;;;;;;;21.67;20.48;;;7.70;90.60;;;;;;5022116;28;20210;-71
2022/09/23 03:17:14;;;;;;;21.02;20.02;;;7.70;90.70;;;;;;5023283;28;20563;-71
2022/09/23 03:19:49;;;;;;;20.15;18.92;;;7.60;91.10;;;;;;5021143;28;20198;-72
2022/09/23 03:22:21;;;;;;;35.20;33.50;;;7.60;91.20;;;;;;5023415;28;20209;-71
2022/09/23 03:24:50;;;;;;;45.55;43.45;;;7.60;91.10;;;;;;5022659;28;20667;-71
2022/09/23 03:27:22;;;;;;;24.48;23.13;;;7.60;91.00;;;;;;5025660;28;20198;-71
2022/09/23 03:29:51;;;;;;;27.30;25.98;;;7.60;90.70;;;;;;5020496;28;20560;-72
2022/09/23 03:32:21;;;;;;;22.90;21.42;;;7.60;90.70;;;;;;5019633;28;20627;-71
2022/09/23 03:34:54;;;;;;;25.30;23.70;;;7.60;90.60;;;;;;5020465;28;20201;-71
2022/09/23 03:37:25;;;;;;;37.10;35.22;;;7.60;90.60;;;;;;5020879;28;20194;-72
2022/09/23 03:39:55;;;;;;;39.90;38.00;;;7.60;90.50;;;;;;5025116;28;20213;-72
2022/09/23 03:42:25;;;;;;;23.42;22.13;;;7.60;90.60;;;;;;5022740;28;20204;-72
2022/09/23 03:44:55;;;;;;;29.85;28.35;;;7.70;90.50;;;;;;5023579;28;20633;-71
2022/09/23 03:47:23;;;;;;;27.90;26.45;;;7.60;90.50;;;;;;5022172;28;20249;-71
2022/09/23 03:49:52;;;;;;;20.88;19.77;;;7.60;90.90;;;;;;5025340;28;20568;-72
2022/09/23 03:52:20;;;;;;;23.88;22.33;;;7.60;90.90;;;;;;5023970;28;20194;-72
2022/09/23 03:54:47;;;;;;;41.35;39.45;;;7.50;90.90;;;;;;5024491;28;20284;-73
2022/09/23 03:57:15;;;;;;;27.40;26.00;;;7.50;90.80;;;;;;5021283;28;20626;-72
2022/09/23 03:59:42;;;;;;;38.63;36.53;;;7.50;90.90;;;;;;5026306;28;20220;-73
2022/09/23 04:02:10;;;;;;;25.52;24.23;;;7.50;91.00;;;;;;5019066;28;20240;-72
2022/09/23 04:04:39;;;;;;;24.38;23.08;;;7.40;91.00;;;;;;5023368;28;20198;-71
2022/09/23 04:07:08;;;;;;;23.02;21.73;;;7.40;91.10;;;;;;5026648;28;20669;-71
2022/09/23 04:09:35;;;;;;;34.75;33.15;;;7.40;91.20;;;;;;5025060;28;20237;-71
2022/09/23 04:12:04;;;;;;;20.50;19.40;;;7.40;91.20;;;;;;5024825;28;20227;-72
2022/09/23 04:14:31;;;;;;;23.63;22.42;;;7.40;91.10;;;;;;5024489;28;20575;-71
2022/09/23 04:17:04;;;;;;;25.20;23.83;;;7.40;91.10;;;;;;5022556;28;20704;-71
2022/09/23 04:19:31;;;;;;;40.58;38.38;;;7.40;91.00;;;;;;5017763;28;20283;-71
2022/09/23 04:21:57;;;;;;;25.27;23.88;;;7.40;91.10;;;;;;5018429;28;20276;-72
2022/09/23 04:24:26;;;;;;;30.90;29.38;;;7.40;91.10;;;;;;5021218;28;20682;-72
2022/09/23 04:26:53;;;;;;;22.20;21.10;;;7.40;91.10;;;;;;5020918;28;20205;-73
2022/09/23 04:29:20;;;;;;;38.95;37.05;;;7.40;91.20;;;;;;5020439;28;20694;-73
2022/09/23 04:31:47;;;;;;;21.75;20.55;;;7.30;91.20;;;;;;5020440;28;20225;-73
2022/09/23 04:34:16;;;;;;;39.60;37.47;;;7.30;91.20;;;;;;5020800;28;20217;-72
2022/09/23 04:36:43;;;;;;;27.02;25.52;;;7.30;91.20;;;;;;5026308;28;20202;-72
2022/09/23 04:39:10;;;;;;;39.30;37.30;;;7.30;91.10;;;;;;5022504;28;20228;-72
2022/09/23 04:41:38;;;;;;;31.08;29.30;;;7.20;91.40;;;;;;5018934;28;20217;-72
2022/09/23 04:44:05;;;;;;;39.08;37.20;;;7.20;91.50;;;;;;5019789;28;21161;-72
2022/09/23 04:46:33;;;;;;;21.80;20.60;;;7.30;91.70;;;;;;5020520;28;20202;-72
2022/09/23 04:49:00;;;;;;;37.92;35.53;;;7.30;91.80;;;;;;5022820;28;20198;-71
2022/09/23 04:51:27;;;;;;;37.45;35.45;;;7.30;91.90;;;;;;5022834;28;20220;-72
2022/09/23 04:53:55;;;;;;;22.58;21.38;;;7.40;91.70;;;;;;5017743;28;20222;-72
2022/09/23 04:56:24;;;;;;;34.20;32.50;;;7.40;91.80;;;;;;5018760;28;20196;-72
2022/09/23 04:58:53;;;;;;;39.45;37.58;;;7.40;91.70;;;;;;5017662;28;20660;-73
2022/09/23 05:01:23;;;;;;;27.98;26.40;;;7.50;91.50;;;;;;5024230;28;20193;-72
2022/09/23 05:03:51;;;;;;;22.52;21.08;;;7.50;91.60;;;;;;5022037;28;20221;-78
2022/09/23 05:06:19;;;;;;;41.30;39.20;;;7.50;91.30;;;;;;5020618;28;20225;-76
2022/09/23 05:08:48;;;;;;;20.70;19.58;;;7.60;91.30;;;;;;5017765;28;20199;-77
2022/09/23 05:11:16;;;;;;;31.90;30.40;;;7.70;91.00;;;;;;5022724;28;20712;-74
2022/09/23 05:13:43;;;;;;;26.45;25.05;;;7.60;91.00;;;;;;5020802;28;20312;-74
2022/09/23 05:16:12;;;;;;;28.20;26.63;;;7.60;91.10;;;;;;5024055;28;20202;-71
2022/09/23 05:18:41;;;;;;;27.77;26.23;;;7.70;90.80;;;;;;5020192;28;20251;-71
2022/09/23 05:21:09;;;;;;;36.13;34.38;;;7.70;90.60;;;;;;5023163;28;20200;-72
2022/09/23 05:23:36;;;;;;;32.90;31.30;;;7.70;90.60;;;;;;5021203;28;20216;-72
2022/09/23 05:26:05;;;;;;;30.50;28.90;;;7.70;90.60;;;;;;5023111;28;20634;-71
2022/09/23 05:28:33;;;;;;;25.40;23.83;;;7.80;90.50;;;;;;5022324;28;20206;-71
2022/09/23 05:31:04;;;;;;;27.35;25.83;;;7.80;90.30;;;;;;5026929;28;20224;-71
2022/09/23 05:33:32;;;;;;;38.63;36.53;;;7.90;90.20;;;;;;5027425;28;20220;-71
2022/09/23 05:35:59;;;;;;;20.88;19.42;;;7.90;90.10;;;;;;5029591;28;20202;-71
2022/09/23 05:38:27;;;;;;;23.67;22.27;;;7.90;89.90;;;;;;5030037;28;20292;-71
2022/09/23 05:40:58;;;;;;;25.08;23.70;;;8.00;89.90;;;;;;5024250;28;20193;-72
2022/09/23 05:43:25;;;;;;;31.05;29.45;;;8.00;89.70;;;;;;5024472;28;20218;-72
2022/09/23 05:46:00;;;;;;;32.65;30.65;;;8.00;89.50;;;;;;5028505;28;20197;-71
2022/09/23 05:48:30;;;;;;;24.92;23.58;;;8.10;89.30;;;;;;5024613;28;20205;-72
2022/09/23 05:50:58;;;;;;;25.42;24.13;;;8.20;89.10;;;;;;5023052;28;20229;-73
2022/09/23 05:53:25;;;;;;;34.08;32.28;;;8.30;88.80;;;;;;5024899;28;20248;-73
2022/09/23 05:55:53;;;;;;;25.05;23.75;;;8.30;88.60;;;;;;5023510;28;20206;-72
2022/09/23 05:58:20;;;;;;;22.30;21.10;;;8.40;88.50;;;;;;5026232;28;20265;-72
2022/09/23 06:00:48;;;;;;;38.97;37.08;;;8.50;88.10;;;;;;5025184;28;20202;-72
2022/09/23 06:03:16;;;;;;;35.97;34.08;;;8.50;88.00;;;;;;5023598;28;20213;-72
2022/09/23 06:05:43;;;;;;;34.90;33.25;;;8.60;87.60;;;;;;5022568;28;20194;-74
2022/09/23 06:08:12;;;;;;;28.75;27.23;;;8.70;87.20;;;;;;5023415;28;20198;-73
2022/09/23 06:10:40;;;;;;;30.13;28.40;;;8.80;86.90;;;;;;5029218;28;20582;-72
2022/09/23 06:13:08;;;;;;;30.35;28.73;;;8.80;86.60;;;;;;5022305;28;20586;-71
2022/09/23 06:15:35;;;;;;;30.67;28.73;;;8.90;86.30;;;;;;5026520;28;20655;-71
2022/09/23 06:18:02;;;;;;;33.97;32.25;;;9.10;85.80;;;;;;5023185;28;20488;-73
2022/09/23 06:20:29;;;;;;;38.08;36.20;;;9.30;85.90;;;;;;5021381;28;20748;-71
2022/09/23 06:23:02;;;;;;;29.88;28.30;;;9.40;84.90;;;;;;5023687;28;20215;-72
2022/09/23 06:25:31;;;;;;;31.00;29.50;;;9.50;84.60;;;;;;5023631;28;20198;-73
2022/09/23 06:27:59;;;;;;;30.90;29.30;;;9.50;84.40;;;;;;5027311;28;20197;-74
2022/09/23 06:30:26;;;;;;;47.55;45.45;;;9.60;84.20;;;;;;5025056;28;20493;-75
2022/09/23 06:32:55;;;;;;;43.77;41.23;;;9.70;83.70;;;;;;5022070;28;20234;-75
2022/09/23 06:35:24;;;;;;;29.93;28.33;;;9.80;83.70;;;;;;5019315;28;20459;-77
2022/09/23 06:37:51;;;;;;;31.20;29.60;;;10.00;83.40;;;;;;5022993;28;20501;-74
2022/09/23 06:40:18;;;;;;;28.20;26.60;;;10.10;82.70;;;;;;5027782;28;21190;-75
2022/09/23 06:42:46;;;;;;;29.30;27.73;;;10.30;82.20;;;;;;5021139;28;20471;-75
2022/09/23 06:45:15;;;;;;;43.13;40.63;;;10.30;81.80;;;;;;5023376;28;20465;-74
2022/09/23 06:47:43;;;;;;;29.60;27.67;;;10.40;81.40;;;;;;5022364;28;21116;-76
2022/09/23 06:50:11;;;;;;;44.97;42.43;;;10.50;81.40;;;;;;5028918;28;20462;-76
2022/09/23 06:52:38;;;;;;;29.20;27.70;;;10.60;81.10;;;;;;5031190;28;20536;-75
2022/09/23 06:55:07;;;;;;;38.50;36.70;;;10.80;80.50;;;;;;5024516;28;20457;-74
2022/09/23 06:57:34;;;;;;;38.97;36.97;;;10.90;80.30;;;;;;5030813;28;20954;-75
2022/09/23 07:00:04;;;;;;;31.60;30.00;;;11.10;80.10;;;;;;5027774;28;21039;-74
2022/09/23 07:02:31;;;;;;;41.90;39.70;;;11.20;79.60;;;;;;5033251;28;21008;-74
2022/09/23 07:04:58;;;;;;;31.33;29.80;;;11.40;79.10;;;;;;5029840;28;20473;-74
2022/09/23 07:07:25;;;;;;;38.03;36.00;;;11.60;78.40;;;;;;5034580;28;20471;-75
2022/09/23 07:09:52;;;;;;;34.57;32.80;;;11.70;78.00;;;;;;5028961;28;20456;-76
2022/09/23 07:12:19;;;;;;;36.53;34.50;;;11.90;77.50;;;;;;5023877;28;20484;-74
2022/09/23 07:14:46;;;;;;;30.90;29.03;;;12.00;76.10;;;;;;5027753;28;20463;-75
2022/09/23 07:17:15;;;;;;;38.57;36.60;;;12.00;75.90;;;;;;5028617;28;20497;-74
2022/09/23 07:19:44;;;;;;;36.37;34.67;;;12.10;75.60;;;;;;5032346;28;20452;-74
2022/09/23 07:22:11;;;;;;;32.77;31.07;;;12.10;75.40;;;;;;5024816;28;20469;-74
2022/09/23 07:24:38;;;;;;;31.97;30.27;;;12.20;74.90;;;;;;5028261;28;20467;-75
2022/09/23 07:27:05;;;;;;;34.03;32.43;;;12.30;74.60;;;;;;5026966;28;20462;-74
2022/09/23 07:29:32;;;;;;;46.87;44.30;;;12.50;74.10;;;;;;5029283;28;20976;-73
2022/09/23 07:31:59;;;;;;;33.13;31.50;;;12.70;73.70;;;;;;5028814;28;20519;-74
2022/09/23 07:34:27;;;;;;;34.23;32.43;;;12.80;73.10;;;;;;5027384;28;20479;-74
2022/09/23 07:36:54;;;;;;;42.63;40.37;;;13.20;72.60;;;;;;5024253;28;20474;-74
2022/09/23 07:39:21;;;;;;;42.30;39.70;;;13.50;72.00;;;;;;5026588;28;20855;-75
2022/09/23 07:41:48;;;;;;;30.80;28.77;;;13.70;70.80;;;;;;5025765;28;21051;-77
2022/09/23 07:44:16;;;;;;;37.47;35.17;;;13.90;70.40;;;;;;5027496;28;20509;-73
2022/09/23 07:46:44;;;;;;;34.40;32.23;;;14.10;69.50;;;;;;5029024;28;20522;-74
2022/09/23 07:49:12;;;;;;;34.03;32.10;;;14.30;68.90;;;;;;5026296;28;20467;-73
2022/09/23 07:51:44;;;;;;;30.30;28.60;;;14.50;68.20;;;;;;5027674;28;20479;-73
2022/09/23 07:54:15;;;;;;;31.70;30.10;;;14.60;67.30;;;;;;5028031;28;20504;-73
2022/09/23 07:56:43;;;;;;;38.53;36.53;;;14.70;67.50;;;;;;5027426;28;20473;-75
2022/09/23 07:59:14;;;;;;;40.00;37.33;;;14.80;67.50;;;;;;5022642;28;20463;-74
2022/09/23 08:01:43;;;;;;;33.60;31.77;;;14.90;67.10;;;;;;5025416;28;20455;-75
2022/09/23 08:04:13;;;;;;;34.30;32.30;;;15.10;66.80;;;;;;5028081;28;21252;-74
2022/09/23 08:06:43;;;;;;;45.40;42.57;;;15.20;66.50;;;;;;5026534;28;20460;-74
2022/09/23 08:09:10;;;;;;;53.47;50.57;;;15.40;66.10;;;;;;5027936;28;20526;-74
2022/09/23 08:11:38;;;;;;;35.53;33.63;;;15.50;65.80;;;;;;5032906;28;20479;-75
2022/09/23 08:14:07;;;;;;;43.07;40.77;;;15.50;65.50;;;;;;5031604;28;20491;-74
2022/09/23 08:16:34;;;;;;;34.20;32.40;;;15.70;65.20;;;;;;5033159;28;20472;-76
2022/09/23 08:19:01;;;;;;;36.70;34.60;;;15.70;65.10;;;;;;5027299;28;20468;-74
2022/09/23 08:21:28;;;;;;;33.63;31.20;;;15.80;64.80;;;;;;5026602;28;21210;-74
2022/09/23 08:23:56;;;;;;;32.27;30.47;;;15.90;65.20;;;;;;5024340;28;21349;-75
2022/09/23 08:26:23;;;;;;;42.27;39.87;;;16.00;65.20;;;;;;5028859;28;20555;-74
2022/09/23 08:28:53;;;;;;;34.40;32.63;;;16.10;64.90;;;;;;5021766;28;20471;-74
2022/09/23 08:31:21;;;;;;;47.13;44.47;;;16.20;64.70;;;;;;5028073;28;20540;-76
2022/09/23 08:33:47;;;;;;;48.17;45.47;;;16.30;64.40;;;;;;5023727;28;20541;-74
2022/09/23 08:36:14;;;;;;;34.03;32.30;;;16.40;64.10;;;;;;5026007;28;20463;-74
2022/09/23 08:38:45;;;;;;;36.00;34.10;;;16.50;63.40;;;;;;5027234;28;20555;-73
2022/09/23 08:41:18;;;;;;;36.30;34.50;;;16.50;63.50;;;;;;5031372;28;20459;-73
2022/09/23 08:43:49;;;;;;;36.03;33.83;;;16.60;63.50;;;;;;5024931;28;20511;-73
2022/09/23 08:46:24;;;;;;;37.90;35.87;;;16.70;63.50;;;;;;5025338;28;20540;-73
2022/09/23 08:48:52;;;;;;;34.00;32.00;;;16.90;63.70;;;;;;5030588;28;20465;-73
2022/09/23 08:51:25;;;;;;;33.67;31.97;;;16.90;63.70;;;;;;5025812;28;20817;-74
2022/09/23 08:53:52;;;;;;;44.93;42.17;;;16.90;63.90;;;;;;5024925;28;20472;-74
2022/09/23 08:56:23;;;;;;;35.80;33.70;;;16.90;64.20;;;;;;5027323;28;20574;-73
2022/09/23 08:59:04;;;;;;;43.30;40.70;;;16.90;63.90;;;;;;5026034;28;20452;-75
2022/09/23 09:01:39;;;;;;;31.93;30.40;;;17.00;63.50;;;;;;5025514;28;20512;-75
2022/09/23 09:04:16;;;;;;;46.57;44.03;;;17.00;62.80;;;;;;5031910;28;20486;-76
2022/09/23 09:06:49;;;;;;;37.87;35.67;;;17.10;62.90;;;;;;5030897;28;20453;-75
2022/09/23 09:09:23;;;;;;;36.20;33.90;;;17.20;63.10;;;;;;5037628;28;20483;-75
2022/09/23 09:11:57;;;;;;;36.03;34.23;;;17.30;62.80;;;;;;5023950;28;20479;-75
2022/09/23 09:14:28;;;;;;;40.73;38.53;;;17.30;62.50;;;;;;5031969;28;20534;-75
2022/09/23 09:16:58;;;;;;;38.60;36.60;;;17.40;62.40;;;;;;5030428;28;20539;-75
2022/09/23 09:19:52;;;;;;;33.57;30.67;;;17.50;62.10;;;;;;5031265;28;20814;-75
2022/09/23 09:22:24;;;;;;;32.57;30.53;;;17.50;62.20;;;;;;5024474;28;20508;-75
2022/09/23 09:24:55;;;;;;;33.83;31.63;;;17.60;61.50;;;;;;5026961;28;20539;-74
2022/09/23 09:27:24;;;;;;;41.33;39.33;;;17.70;60.90;;;;;;5025818;28;20543;-74
2022/09/23 09:29:55;;;;;;;35.33;33.43;;;17.60;60.50;;;;;;5023527;28;20552;-74
2022/09/23 09:32:33;;;;;;;30.53;29.03;;;17.70;60.50;;;;;;5030758;28;20508;-74
2022/09/23 09:35:07;;;;;;;40.60;38.43;;;17.80;60.20;;;;;;5024133;28;20461;-74
2022/09/23 09:37:39;;;;;;;37.13;35.20;;;17.80;60.20;;;;;;5028761;28;20459;-74
2022/09/23 09:40:08;;;;;;;49.57;47.07;;;17.80;60.00;;;;;;5022233;28;21016;-74
2022/09/23 09:42:39;;;;;;;34.40;32.60;;;18.00;60.00;;;;;;5028470;28;20480;-73
2022/09/23 09:45:15;;;;;;;48.07;45.47;;;18.00;59.60;;;;;;5025022;28;20500;-74
2022/09/23 09:47:51;;;;;;;45.23;42.80;;;18.10;59.20;;;;;;5030955;28;20447;-74
2022/09/23 09:50:39;;;;;;;32.20;30.60;;;18.10;59.20;;;;;;5032254;28;20845;-74
2022/09/23 09:53:21;;;;;;;39.47;37.47;;;18.20;59.00;;;;;;5024113;28;20473;-73
2022/09/23 09:55:59;;;;;;;35.47;33.73;;;18.20;59.00;;;;;;5021982;28;20487;-74
2022/09/23 09:58:30;;;;;;;38.07;36.27;;;18.20;59.30;;;;;;5033743;28;20450;-74
2022/09/23 10:00:57;;;;;;;33.70;32.00;;;18.30;58.90;;;;;;5027641;28;20452;-74
2022/09/23 10:03:33;;;;;;;46.87;44.50;;;18.40;58.80;;;;;;5026407;28;20480;-74
2022/09/23 10:06:12;;;;;;;38.93;37.00;;;18.50;58.50;;;;;;5028292;28;20547;-74
2022/09/23 10:08:40;;;;;;;32.37;30.77;;;18.40;58.30;;;;;;5035537;28;20467;-75
2022/09/23 10:11:15;;;;;;;31.10;29.57;;;18.30;58.70;;;;;;5029363;28;20452;-75
2022/09/23 10:13:44;;;;;;;38.77;36.73;;;18.20;58.80;;;;;;5028949;28;20536;-77
2022/09/23 10:16:15;;;;;;;35.83;33.63;;;17.90;59.50;;;;;;5026838;28;20464;-76
2022/09/23 10:18:52;;;;;;;32.00;30.30;;;17.90;60.00;;;;;;5026428;28;20568;-77
2022/09/23 10:21:22;;;;;;;48.47;45.77;;;18.00;59.90;;;;;;5029150;28;20456;-76
2022/09/23 10:23:52;;;;;;;47.87;45.20;;;18.20;59.30;;;;;;5029094;28;20831;-76
2022/09/23 10:26:29;;;;;;;34.27;32.30;;;18.20;59.40;;;;;;5030328;28;20464;-76
2022/09/23 10:28:58;;;;;;;33.57;31.90;;;18.30;59.60;;;;;;5025863;28;20476;-76
2022/09/23 10:31:27;;;;;;;38.93;37.00;;;18.40;59.20;;;;;;5028403;28;20457;-81
2022/09/23 10:33:56;;;;;;;41.60;39.40;;;18.50;58.60;;;;;;5026884;28;20484;-75
2022/09/23 10:36:23;;;;;;;42.50;40.30;;;18.50;58.50;;;;;;5027996;28;20546;-73
2022/09/23 10:46:36;;;;;;;31.73;30.13;;;18.60;58.50;;;;;;5035300;28;20534;-75
2022/09/23 10:47:36;;;;;;;35.70;33.90;;;18.80;58.20;;;;;;5026433;28;20455;-75
2022/09/23 10:50:22;;;;;;;33.00;31.30;;;18.90;58.30;;;;;;5030332;28;20476;-75
2022/09/23 10:53:02;;;;;;;38.80;36.90;;;18.90;58.20;;;;;;5025774;28;20580;-74
2022/09/23 10:55:45;;;;;;;40.70;38.57;;;19.10;58.40;;;;;;5026854;28;20800;-75
2022/09/23 10:58:35;;;;;;;38.40;36.10;;;19.30;57.70;;;;;;5024466;28;20494;-75
2022/09/23 11:01:17;;;;;;;33.37;31.67;;;19.60;56.90;;;;;;5022618;28;20553;-76
2022/09/23 11:04:18;;;;;;;33.33;31.60;;;19.50;56.60;;;;;;5028337;28;20485;-75
2022/09/23 11:07:08;;;;;;;38.53;36.37;;;19.60;56.60;;;;;;5015293;28;20502;-76
2022/09/23 11:09:48;;;;;;;46.97;44.57;;;19.70;56.70;;;;;;5021708;28;20460;-76
2022/09/23 11:12:31;;;;;;;31.77;30.27;;;19.70;56.30;;;;;;5025159;28;20490;-77
2022/09/23 11:15:19;;;;;;;45.57;43.27;;;19.60;56.40;;;;;;5027166;28;20986;-76
2022/09/23 11:18:32;;;;;;;35.57;33.87;;;19.80;56.10;;;;;;5021996;28;20991;-76
2022/09/23 11:21:09;;;;;;;42.83;40.50;;;19.80;55.90;;;;;;5029300;28;20474;-76
2022/09/23 11:23:54;;;;;;;45.97;43.47;;;19.80;56.10;;;;;;5024105;28;20478;-76
2022/09/23 11:26:31;;;;;;;34.70;32.47;;;19.70;56.00;;;;;;5024979;28;20897;-77
2022/09/23 11:29:25;;;;;;;40.37;38.20;;;19.60;56.30;;;;;;5025490;28;20459;-75
2022/09/23 11:32:03;;;;;;;49.53;46.37;;;19.70;56.20;;;;;;5024617;28;20908;-75
2022/09/23 11:34:51;;;;;;;32.37;30.77;;;19.70;56.60;;;;;;5022103;28;20494;-75
2022/09/23 11:37:21;;;;;;;42.37;40.27;;;19.60;56.60;;;;;;5022955;28;20492;-74
2022/09/23 11:39:53;;;;;;;44.63;42.10;;;19.50;57.30;;;;;;5024153;28;20553;-75
2022/09/23 11:42:24;;;;;;;41.97;39.93;;;19.40;56.90;;;;;;5026278;28;20468;-75
2022/09/23 11:44:59;;;;;;;40.87;38.87;;;19.40;57.10;;;;;;5025534;28;20465;-74
2022/09/23 11:47:32;;;;;;;37.57;35.77;;;19.50;56.80;;;;;;5024331;28;21103;-75
2022/09/23 11:50:03;;;;;;;46.80;44.30;;;19.70;55.90;;;;;;5027397;28;21276;-76
2022/09/23 11:52:36;;;;;;;36.87;35.00;;;19.60;56.20;;;;;;5024052;28;20486;-75
2022/09/23 11:55:13;;;;;;;42.37;40.27;;;19.70;56.10;;;;;;5023983;28;20464;-75
2022/09/23 11:57:45;;;;;;;42.03;39.83;;;19.50;56.50;;;;;;5029282;28;20485;-74
2022/09/23 12:00:18;;;;;;;41.00;38.80;;;19.30;57.00;;;;;;5028322;28;20455;-75
2022/09/23 12:02:59;;;;;;;46.27;43.90;;;19.40;57.10;;;;;;5022074;28;20489;-75
2022/09/23 12:05:31;;;;;;;43.30;40.90;;;19.50;56.80;;;;;;5022844;28;20455;-76
2022/09/23 12:08:02;;;;;;;36.33;34.13;;;19.60;56.50;;;;;;5029763;28;20453;-75
2022/09/23 12:10:46;;;;;;;35.10;33.13;;;19.60;56.60;;;;;;5028371;28;20471;-74
2022/09/23 12:13:20;;;;;;;41.27;38.87;;;19.60;56.80;;;;;;5024002;28;20984;-74
2022/09/23 12:16:03;;;;;;;41.33;39.03;;;19.70;56.50;;;;;;5021998;28;20573;-76
2022/09/23 12:18:47;;;;;;;36.10;34.10;;;19.70;56.60;;;;;;5030090;28;20463;-74
2022/09/23 12:21:37;;;;;;;35.23;33.27;;;19.90;56.50;;;;;;5025603;28;20456;-74
2022/09/23 12:24:26;;;;;;;33.23;31.37;;;20.20;56.00;;;;;;5026134;28;20491;-74
2022/09/23 12:26:57;;;;;;;38.13;35.63;;;20.40;55.70;;;;;;5040678;28;20550;-74
2022/09/23 12:29:26;;;;;;;45.90;42.83;;;20.60;55.30;;;;;;5025060;28;20886;-74
2022/09/23 12:31:54;;;;;;;36.30;34.30;;;20.90;55.00;;;;;;5026581;28;20969;-75
2022/09/23 12:34:27;;;;;;;32.37;30.57;;;20.90;54.70;;;;;;5022898;28;21012;-77
2022/09/23 12:37:01;;;;;;;33.60;31.70;;;20.70;54.60;;;;;;5026284;28;20456;-74
2022/09/23 12:39:31;;;;;;;45.20;42.57;;;20.50;54.60;;;;;;5030175;28;20953;-75
2022/09/23 12:42:02;;;;;;;34.50;32.87;;;20.40;54.80;;;;;;5023549;28;20587;-76
2022/09/23 12:44:33;;;;;;;34.60;32.80;;;20.50;54.70;;;;;;5020602;28;20457;-75
2022/09/23 12:47:37;;;;;;;42.57;40.37;;;20.70;54.50;;;;;;5018789;28;20449;-76
2022/09/23 12:50:46;;;;;;;44.07;41.73;;;21.10;53.90;;;;;;5025608;28;20456;-76
2022/09/23 12:53:53;;;;;;;39.23;37.20;;;21.40;53.00;;;;;;5025032;28;20966;-74
2022/09/23 12:56:36;;;;;;;42.93;40.73;;;21.50;52.90;;;;;;5017206;28;20515;-74
2022/09/23 12:59:25;;;;;;;47.63;45.10;;;21.60;52.50;;;;;;5009197;28;20456;-74
2022/09/23 13:01:53;;;;;;;43.40;40.40;;;21.60;52.80;;;;;;5026695;28;20803;-74
2022/09/23 13:07:46;;;;;;;46.00;43.23;;;21.70;52.90;;;;;;5019220;28;20607;-77
2022/09/23 13:10:18;;;;;;;47.90;45.00;;;21.60;52.50;;;;;;5026055;28;20558;-75